Time;durP1;ratioP1;P1;durP2;ratioP2;P2;SDS_P1;SDS_P2;PMS_P1;PMS_P2;Temp;Humidity;BMP_temperature;BMP_pressure;BME280_temperature;BME280_humidity;BME280_pressure;Samples;Min_cycle;Max_cycle;Signal;HPM_P1;HPM_P2
2023/02/09 00:00:18;;;;;;;;;;;;;;;3.81;37.85;102979.59;4999340;28;20382;-82
2023/02/09 00:03:10;;;;;;;;;;;;;;;4.05;36.13;102973.47;5020858;28;20294;-83
2023/02/09 00:06:19;;;;;;;;;;;;;;;3.98;35.58;102959.22;5019534;28;19917;-83
2023/02/09 00:09:11;;;;;;;;;;;;;;;4.17;35.06;102966.34;5002675;28;19921;-81
2023/02/09 00:15:12;;;;;;;;;;;;;;;4.04;36.56;102954.84;5000506;28;19918;-81
2023/02/09 00:18:04;;;;;;;;;;;;;;;4.15;36.86;102960.38;4992536;28;19918;-81
2023/02/09 00:20:59;;;;;;;;;;;;;;;3.88;35.44;102956.16;5017079;28;19921;-81
2023/02/09 00:23:51;;;;;;;;;;;;;;;4.01;37.09;102957.97;5024248;28;19917;-81
2023/02/09 00:26:43;;;;;;;;;;;;;;;3.97;37.13;102954.88;4992174;28;19918;-81
2023/02/09 00:29:35;;;;;;;;;;;;;;;3.85;34.16;102960.13;4979962;28;19918;-81
2023/02/09 00:32:27;;;;;;;;;;;;;;;3.88;34.95;102959.69;4980792;28;19918;-83
2023/02/09 00:35:19;;;;;;;;;;;;;;;3.71;35.55;102958.53;4997804;28;19918;-81
2023/02/09 00:38:09;;;;;;;;;;;;;;;3.75;34.67;102954.38;4999436;28;19921;-82
2023/02/09 00:41:01;;;;;;;;;;;;;;;3.83;35.79;102954.13;4999783;28;19918;-81
2023/02/09 00:43:53;;;;;;;;;;;;;;;3.98;34.10;102948.44;5003744;28;19917;-81
2023/02/09 00:46:46;;;;;;;;;;;;;;;3.85;34.80;102959.31;5017087;28;19921;-81
2023/02/09 00:49:38;;;;;;;;;;;;;;;3.85;35.28;102945.84;5010876;28;20403;-81
2023/02/09 00:52:30;;;;;;;;;;;;;;;4.01;35.72;102947.22;5027648;28;20278;-81
2023/02/09 00:55:22;;;;;;;;;;;;;;;4.24;34.28;102955.53;5009148;28;19917;-81
2023/02/09 00:58:14;;;;;;;;;;;;;;;4.35;33.73;102944.06;4999967;28;19922;-80
2023/02/09 01:01:06;;;;;;;;;;;;;;;4.30;33.66;102950.09;4993405;28;19917;-82
2023/02/09 01:03:58;;;;;;;;;;;;;;;4.15;33.60;102940.69;4996388;28;19922;-82
2023/02/09 01:06:50;;;;;;;;;;;;;;;4.32;34.40;102941.00;5033050;28;19918;-80
2023/02/09 01:09:42;;;;;;;;;;;;;;;3.97;34.67;102935.19;5028558;28;20375;-78
2023/02/09 01:12:33;;;;;;;;;;;;;;;4.08;35.13;102937.22;5002614;28;19918;-80
2023/02/09 01:15:25;;;;;;;;;;;;;;;4.19;35.13;102937.34;4999636;28;19918;-79
2023/02/09 01:18:17;;;;;;;;;;;;;;;3.97;35.02;102930.66;5000534;28;19921;-79
2023/02/09 01:21:17;;;;;;;;;;;;;;;4.04;34.42;102925.22;5000319;28;20310;-79
2023/02/09 01:24:13;;;;;;;;;;;;;;;4.16;33.75;102932.41;5000673;28;19921;-79
2023/02/09 01:27:05;;;;;;;;;;;;;;;3.90;34.04;102927.19;4999901;28;19918;-80
2023/02/09 01:29:58;;;;;;;;;;;;;;;4.01;34.46;102925.69;4979690;28;19922;-80
2023/02/09 01:32:48;;;;;;;;;;;;;;;4.09;35.18;102926.22;4980546;28;19918;-80
2023/02/09 01:35:39;;;;;;;;;;;;;;;4.24;34.09;102920.53;5024636;28;20387;-80
2023/02/09 01:38:31;;;;;;;;;;;;;;;4.24;33.68;102918.66;5000772;28;19922;-80
2023/02/09 01:41:24;;;;;;;;;;;;;;;4.02;33.76;102930.81;4999775;28;19917;-80
2023/02/09 01:44:14;;;;;;;;;;;;;;;3.90;34.00;102924.50;5000401;28;19918;-80
2023/02/09 01:47:13;;;;;;;;;;;;;;;4.00;33.72;102926.72;5000569;28;19918;-80
2023/02/09 01:50:05;;;;;;;;;;;;;;;3.83;34.25;102923.69;4994254;28;19918;-80
2023/02/09 01:52:57;;;;;;;;;;;;;;;3.79;33.87;102919.78;5000038;28;19917;-79
2023/02/09 01:55:59;;;;;;;;;;;;;;;3.92;34.07;102917.00;5003332;28;19918;-80
2023/02/09 01:58:51;;;;;;;;;;;;;;;3.87;33.81;102920.34;5000908;28;20382;-80
2023/02/09 02:01:44;;;;;;;;;;;;;;;3.95;36.42;102903.13;5008452;28;19922;-80
2023/02/09 02:04:39;;;;;;;;;;;;;;;3.95;34.18;102905.00;5020598;28;19917;-80
2023/02/09 02:07:33;;;;;;;;;;;;;;;3.96;33.78;102909.34;4992881;28;19918;-80
2023/02/09 02:10:25;;;;;;;;;;;;;;;3.88;34.36;102905.88;4996380;28;19918;-80
2023/02/09 02:13:15;;;;;;;;;;;;;;;3.65;34.94;102904.78;5029173;28;19917;-80
2023/02/09 02:16:07;;;;;;;;;;;;;;;3.76;34.31;102904.06;5002447;28;19918;-80
2023/02/09 02:19:05;;;;;;;;;;;;;;;3.46;33.85;102906.50;5029197;28;19922;-80
2023/02/09 02:22:14;;;;;;;;;;;;;;;3.52;34.24;102904.81;4979829;28;19921;-78
2023/02/09 02:25:20;;;;;;;;;;;;;;;3.65;33.62;102892.16;5029647;28;19918;-79
2023/02/09 02:28:30;;;;;;;;;;;;;;;3.79;33.25;102895.59;5020902;28;19918;-79
2023/02/09 02:31:38;;;;;;;;;;;;;;;3.77;33.78;102892.25;5012893;28;19918;-78
2023/02/09 02:34:43;;;;;;;;;;;;;;;4.08;32.93;102888.75;4998976;28;19918;-79
2023/02/09 02:37:43;;;;;;;;;;;;;;;4.04;32.51;102885.69;5002083;28;19917;-80
2023/02/09 02:40:36;;;;;;;;;;;;;;;3.79;33.41;102885.66;4999810;28;19922;-79
2023/02/09 02:43:28;;;;;;;;;;;;;;;3.94;32.49;102888.03;5003491;28;19925;-79
2023/02/09 02:46:27;;;;;;;;;;;;;;;4.04;32.95;102883.00;5009366;28;19917;-79
2023/02/09 02:49:23;;;;;;;;;;;;;;;4.26;31.84;102880.75;4997403;28;19918;-79
2023/02/09 02:52:15;;;;;;;;;;;;;;;4.47;31.93;102876.84;5013285;28;19918;-80
2023/02/09 02:55:10;;;;;;;;;;;;;;;4.61;31.71;102873.81;5006859;28;20286;-79
2023/02/09 02:58:04;;;;;;;;;;;;;;;4.22;32.11;102871.44;5043390;28;19917;-80
2023/02/09 03:00:59;;;;;;;;;;;;;;;4.49;31.32;102875.56;5003727;28;19922;-80
2023/02/09 03:03:51;;;;;;;;;;;;;;;4.72;31.05;102873.03;4999598;28;20299;-79
2023/02/09 03:06:43;;;;;;;;;;;;;;;4.82;31.20;102869.84;5002614;28;20382;-81
2023/02/09 03:09:35;;;;;;;;;;;;;;;4.29;31.76;102873.06;5002972;28;19917;-81
2023/02/09 03:12:44;;;;;;;;;;;;;;;4.49;31.31;102869.34;5003673;28;20406;-80
2023/02/09 03:15:40;;;;;;;;;;;;;;;4.40;31.32;102870.69;5006232;28;19918;-80
2023/02/09 03:18:35;;;;;;;;;;;;;;;4.50;31.68;102866.44;5012220;28;19917;-80
2023/02/09 03:21:36;;;;;;;;;;;;;;;4.06;32.09;102867.44;5017397;28;19925;-79
2023/02/09 03:24:32;;;;;;;;;;;;;;;4.22;31.63;102869.56;5009775;28;19921;-79
2023/02/09 03:27:48;;;;;;;;;;;;;;;4.02;31.93;102862.69;5019202;28;19919;-79
2023/02/09 03:30:41;;;;;;;;;;;;;;;4.20;32.15;102866.31;5017604;28;19918;-79
2023/02/09 03:33:34;;;;;;;;;;;;;;;4.16;32.08;102861.56;5029036;28;19918;-80
2023/02/09 03:36:24;;;;;;;;;;;;;;;4.21;31.75;102861.75;5006156;28;19917;-81
2023/02/09 03:39:16;;;;;;;;;;;;;;;4.46;31.27;102853.66;5010459;28;19921;-80
2023/02/09 03:42:08;;;;;;;;;;;;;;;4.28;31.26;102852.53;5018245;28;19917;-80
2023/02/09 03:45:01;;;;;;;;;;;;;;;4.43;30.96;102852.19;5015330;28;19926;-81
2023/02/09 03:47:53;;;;;;;;;;;;;;;4.41;31.00;102845.41;5007446;28;19917;-81
2023/02/09 03:50:45;;;;;;;;;;;;;;;4.38;30.88;102843.13;5002830;28;19922;-81
2023/02/09 03:53:40;;;;;;;;;;;;;;;4.00;31.75;102846.78;5033493;28;19917;-80
2023/02/09 03:56:32;;;;;;;;;;;;;;;4.53;31.87;102838.22;4988921;28;19917;-80
2023/02/09 03:59:22;;;;;;;;;;;;;;;4.48;32.75;102840.75;4995775;28;19926;-80
2023/02/09 04:02:14;;;;;;;;;;;;;;;4.18;32.14;102843.31;4999405;28;19918;-80
2023/02/09 04:05:06;;;;;;;;;;;;;;;4.32;32.38;102835.97;5029134;28;19918;-79
2023/02/09 04:07:59;;;;;;;;;;;;;;;4.17;32.15;102836.28;5009889;28;19918;-81
2023/02/09 04:10:51;;;;;;;;;;;;;;;4.02;31.83;102838.47;4999015;28;19921;-80
2023/02/09 04:13:43;;;;;;;;;;;;;;;4.00;31.47;102837.88;5029047;28;19918;-80
2023/02/09 04:16:34;;;;;;;;;;;;;;;3.85;32.32;102832.81;5006887;28;19926;-82
2023/02/09 04:19:27;;;;;;;;;;;;;;;4.09;32.01;102834.69;4995328;28;19921;-81
2023/02/09 04:22:19;;;;;;;;;;;;;;;4.04;31.79;102829.16;5004731;28;19918;-81
2023/02/09 04:25:11;;;;;;;;;;;;;;;4.26;31.18;102821.50;4999519;28;19918;-80
2023/02/09 04:28:03;;;;;;;;;;;;;;;4.32;31.10;102833.28;4994824;28;19921;-81
2023/02/09 04:30:55;;;;;;;;;;;;;;;4.14;31.58;102824.09;5016027;28;19917;-81
2023/02/09 04:33:47;;;;;;;;;;;;;;;3.80;31.78;102827.28;4999095;28;19926;-81
2023/02/09 04:36:39;;;;;;;;;;;;;;;3.54;32.15;102832.81;5019668;28;19917;-81
2023/02/09 04:39:31;;;;;;;;;;;;;;;3.28;32.55;102831.94;5006031;28;20387;-81
2023/02/09 04:42:23;;;;;;;;;;;;;;;3.25;32.38;102829.66;5003980;28;20295;-80
2023/02/09 04:45:15;;;;;;;;;;;;;;;3.28;33.06;102823.88;5011272;28;19918;-81
2023/02/09 04:48:07;;;;;;;;;;;;;;;2.94;33.62;102826.91;5002790;28;19917;-80
2023/02/09 04:50:59;;;;;;;;;;;;;;;3.23;32.97;102820.16;5003133;28;19918;-80
2023/02/09 04:53:49;;;;;;;;;;;;;;;3.23;33.65;102815.63;5007269;28;20306;-81
2023/02/09 04:56:41;;;;;;;;;;;;;;;3.29;32.88;102813.94;5016828;28;19926;-81
2023/02/09 04:59:34;;;;;;;;;;;;;;;3.25;32.76;102818.91;5016008;28;19922;-81
2023/02/09 05:02:26;;;;;;;;;;;;;;;3.38;33.01;102818.03;5023856;28;19918;-80
2023/02/09 05:05:18;;;;;;;;;;;;;;;3.00;33.36;102826.03;5011456;28;19922;-81
2023/02/09 05:08:10;;;;;;;;;;;;;;;3.14;33.03;102826.84;5004516;28;19917;-80
2023/02/09 05:11:02;;;;;;;;;;;;;;;3.20;32.96;102826.78;5002360;28;20386;-81
2023/02/09 05:13:54;;;;;;;;;;;;;;;3.25;33.07;102826.16;5004480;28;19918;-80
2023/02/09 05:16:44;;;;;;;;;;;;;;;3.31;32.56;102833.34;5012722;28;20306;-81
2023/02/09 05:19:36;;;;;;;;;;;;;;;3.21;32.89;102828.44;5005958;28;19926;-80
2023/02/09 05:22:28;;;;;;;;;;;;;;;3.25;32.62;102826.16;5005513;28;19921;-80
2023/02/09 05:25:20;;;;;;;;;;;;;;;3.41;32.37;102826.47;5036279;28;19921;-80
2023/02/09 05:28:12;;;;;;;;;;;;;;;3.33;32.60;102824.03;5022211;28;20397;-80
2023/02/09 05:31:02;;;;;;;;;;;;;;;3.28;32.84;102829.25;5022490;28;20309;-79
2023/02/09 05:33:54;;;;;;;;;;;;;;;2.98;33.45;102838.88;5022915;28;19917;-82
2023/02/09 05:36:46;;;;;;;;;;;;;;;3.31;32.59;102827.97;5008021;28;19918;-81
2023/02/09 05:39:36;;;;;;;;;;;;;;;3.51;32.63;102836.75;5002736;28;19925;-80
2023/02/09 05:42:28;;;;;;;;;;;;;;;3.75;32.29;102833.31;5007801;28;19921;-81
2023/02/09 05:45:20;;;;;;;;;;;;;;;3.70;32.39;102830.44;5016035;28;19917;-81
2023/02/09 05:48:12;;;;;;;;;;;;;;;3.76;32.28;102842.19;5004388;28;19917;-80
2023/02/09 05:51:04;;;;;;;;;;;;;;;3.86;31.90;102837.97;5021947;28;19917;-81
2023/02/09 05:53:56;;;;;;;;;;;;;;;3.97;32.17;102839.13;5025137;28;20390;-80
2023/02/09 05:56:48;;;;;;;;;;;;;;;3.81;32.41;102851.25;5013676;28;19922;-81
2023/02/09 05:59:40;;;;;;;;;;;;;;;3.83;32.54;102843.81;5008266;28;21034;-81
2023/02/09 06:02:32;;;;;;;;;;;;;;;3.68;32.54;102837.06;4995806;28;19918;-81
2023/02/09 06:05:24;;;;;;;;;;;;;;;3.59;33.06;102836.53;5025141;28;19919;-81
2023/02/09 06:08:16;;;;;;;;;;;;;;;3.80;32.62;102832.66;5015657;28;19918;-82
2023/02/09 06:11:09;;;;;;;;;;;;;;;3.85;32.34;102830.97;4995338;28;19922;-82
2023/02/09 06:13:58;;;;;;;;;;;;;;;3.73;32.69;102830.00;5030190;28;19917;-83
2023/02/09 06:16:50;;;;;;;;;;;;;;;3.57;33.41;102837.75;5002752;28;20387;-83
2023/02/09 06:19:42;;;;;;;;;;;;;;;3.52;33.86;102824.97;4998249;28;19922;-83
2023/02/09 06:22:29;;;;;;;;;;;;;;;2.89;34.31;102830.25;5035161;28;19918;-84
2023/02/09 06:25:17;;;;;;;;;;;;;;;3.20;34.87;102831.38;4999983;28;19925;-84
2023/02/09 06:28:03;;;;;;;;;;;;;;;3.30;33.98;102827.16;5022184;28;19922;-85
2023/02/09 06:30:54;;;;;;;;;;;;;;;3.39;33.95;102833.94;5027833;28;20307;-84
2023/02/09 06:33:43;;;;;;;;;;;;;;;3.37;33.72;102837.88;4990272;28;19917;-85
2023/02/09 06:36:36;;;;;;;;;;;;;;;3.31;34.08;102844.94;4996475;28;19941;-84
2023/02/09 06:39:28;;;;;;;;;;;;;;;3.29;34.81;102847.03;5030764;28;19922;-83
2023/02/09 06:42:18;;;;;;;;;;;;;;;3.30;35.34;102843.28;5023076;28;19918;-83
2023/02/09 06:45:10;;;;;;;;;;;;;;;3.34;35.23;102847.22;4995556;28;19918;-82
2023/02/09 06:47:57;;;;;;;;;;;;;;;2.93;34.98;102857.50;5002395;28;19918;-83
2023/02/09 06:50:46;;;;;;;;;;;;;;;2.74;35.77;102861.91;5025995;28;19918;-83
2023/02/09 06:53:38;;;;;;;;;;;;;;;2.62;36.01;102858.22;5000144;28;19922;-83
2023/02/09 06:56:30;;;;;;;;;;;;;;;2.76;36.29;102862.50;4999155;28;19918;-82
2023/02/09 06:59:22;;;;;;;;;;;;;;;2.68;36.39;102867.28;5028046;28;20403;-83
2023/02/09 07:02:14;;;;;;;;;;;;;;;3.09;35.98;102867.78;5001304;28;19918;-83
2023/02/09 07:05:06;;;;;;;;;;;;;;;3.11;35.44;102867.56;5023424;28;19917;-82
2023/02/09 07:08:02;;;;;;;;;;;;;;;2.70;36.65;102875.94;5026581;28;19917;-82
2023/02/09 07:10:54;;;;;;;;;;;;;;;3.10;36.25;102880.16;4991121;28;20514;-82
2023/02/09 07:13:45;;;;;;;;;;;;;;;3.05;36.20;102876.50;5035077;28;19917;-82
2023/02/09 07:16:37;;;;;;;;;;;;;;;3.10;36.03;102876.69;5012066;28;19917;-81
2023/02/09 07:19:29;;;;;;;;;;;;;;;3.01;36.24;102882.28;5008702;28;19921;-81
2023/02/09 07:22:21;;;;;;;;;;;;;;;2.70;37.41;102886.69;4998733;28;19918;-82
2023/02/09 07:25:13;;;;;;;;;;;;;;;2.40;37.41;102889.00;4996281;28;19918;-76
2023/02/09 07:31:05;;;;;;;;;;;;;;;2.40;37.83;102892.50;5019382;28;19925;-82
2023/02/09 07:33:55;;;;;;;;;;;;;;;2.41;37.82;102896.84;5021795;28;19925;-82
2023/02/09 07:36:48;;;;;;;;;;;;;;;2.15;39.06;102894.16;5025048;28;19921;-82
2023/02/09 07:39:44;;;;;;;;;;;;;;;1.83;40.54;102905.69;5026846;28;19921;-82
2023/02/09 07:47:15;;;;;;;;;;;;;;;1.28;41.72;102911.06;5020866;28;19922;-82
2023/02/09 07:50:52;;;;;;;;;;;;;;;1.30;41.63;102908.19;5093374;22;19948;-82
2023/02/09 07:53:45;;;;;;;;;;;;;;;1.33;42.08;102905.09;5032581;28;19925;-82
2023/02/09 07:56:50;;;;;;;;;;;;;;;1.76;40.98;102907.53;5048416;28;19917;-82
2023/02/09 08:00:24;;;;;;;;;;;;;;;2.28;36.17;102907.59;5028141;28;19918;-82
2023/02/09 08:04:04;;;;;;;;;;;;;;;2.74;35.28;102912.94;4967405;28;19917;-81
2023/02/09 08:16:01;;;;;;;;;;;;;;;2.29;35.20;102913.75;5201303;22;19926;-81
2023/02/09 08:18:55;;;;;;;;;;;;;;;2.26;36.02;102909.66;4985793;28;19923;-80
2023/02/09 08:21:48;;;;;;;;;;;;;;;2.51;34.43;102913.38;4983241;28;20291;-80
2023/02/09 08:24:42;;;;;;;;;;;;;;;2.43;35.00;102924.31;4992882;28;19981;-80
2023/02/09 08:27:34;;;;;;;;;;;;;;;2.35;34.45;102924.53;4988605;28;19918;-79
2023/02/09 08:30:26;;;;;;;;;;;;;;;2.35;35.17;102924.53;4974551;28;20531;-81
2023/02/09 08:33:15;;;;;;;;;;;;;;;2.60;34.82;102927.41;4973583;28;19922;-80
2023/02/09 08:36:05;;;;;;;;;;;;;;;2.64;36.43;102927.84;4976712;28;19918;-80
2023/02/09 08:39:06;;;;;;;;;;;;;;;2.65;36.42;102930.28;4974513;28;20395;-80
2023/02/09 08:41:58;;;;;;;;;;;;;;;2.93;36.63;102941.63;4974810;28;19918;-81
2023/02/09 08:44:51;;;;;;;;;;;;;;;2.92;35.52;102937.28;4980582;28;19917;-80
2023/02/09 08:47:44;;;;;;;;;;;;;;;2.96;36.95;102940.38;4980491;28;19922;-81
2023/02/09 08:50:53;;;;;;;;;;;;;;;2.71;35.23;102928.63;4977043;28;19918;-80
2023/02/09 08:53:54;;;;;;;;;;;;;;;2.79;34.74;102923.06;4970952;28;19922;-82
2023/02/09 08:57:08;;;;;;;;;;;;;;;2.88;34.81;102930.69;4965917;28;19930;-80
2023/02/09 09:00:59;;;;;;;;;;;;;;;3.24;35.54;102932.88;4975059;28;19918;-81
2023/02/09 09:04:17;;;;;;;;;;;;;;;3.14;34.30;102935.19;4978786;28;19918;-81
2023/02/09 09:07:48;;;;;;;;;;;;;;;3.13;35.30;102936.22;4987958;28;19921;-80
2023/02/09 09:13:48;;;;;;;;;;;;;;;3.09;35.78;102944.91;5976432;22;19925;-83
2023/02/09 09:16:37;;;;;;;;;;;;;;;2.94;33.47;102940.59;5047585;28;19921;-82
2023/02/09 09:19:28;;;;;;;;;;;;;;;3.33;34.33;102950.41;5058063;28;19920;-82
2023/02/09 09:22:14;;;;;;;;;;;;;;;3.52;33.48;102947.84;5056702;28;19925;-83
2023/02/09 09:25:04;;;;;;;;;;;;;;;3.61;32.30;102946.56;5062467;28;19921;-83
2023/02/09 09:27:56;;;;;;;;;;;;;;;3.65;32.99;102942.44;5053026;28;19920;-83
2023/02/09 09:30:48;;;;;;;;;;;;;;;3.38;32.44;102953.28;5039404;28;19917;-82
2023/02/09 09:33:40;;;;;;;;;;;;;;;3.42;32.24;102943.75;5052289;28;20339;-82
2023/02/09 09:36:32;;;;;;;;;;;;;;;3.39;32.12;102946.06;5040306;28;19917;-81
2023/02/09 09:39:24;;;;;;;;;;;;;;;3.39;33.16;102954.94;5037447;28;19921;-82
2023/02/09 09:42:37;;;;;;;;;;;;;;;3.03;32.61;102945.75;5040348;28;19917;-80
2023/02/09 09:45:29;;;;;;;;;;;;;;;3.22;32.94;102943.00;5034257;28;19921;-80
2023/02/09 09:48:28;;;;;;;;;;;;;;;3.16;33.10;102929.56;5040115;28;19925;-80
2023/02/09 09:51:34;;;;;;;;;;;;;;;3.32;32.39;102937.19;5039796;28;19917;-80
2023/02/09 09:54:24;;;;;;;;;;;;;;;3.37;31.85;102946.25;5060641;28;19917;-80
2023/02/09 09:57:22;;;;;;;;;;;;;;;3.28;31.66;102947.53;5058250;28;19920;-80
2023/02/09 10:00:21;;;;;;;;;;;;;;;3.72;33.31;102951.28;5055013;28;19917;-80
2023/02/09 10:03:22;;;;;;;;;;;;;;;3.59;33.04;102960.25;5058873;28;19917;-79
2023/02/09 10:06:19;;;;;;;;;;;;;;;3.30;32.57;102960.78;5055042;28;19917;-80
2023/02/09 10:09:14;;;;;;;;;;;;;;;3.94;33.55;102955.31;5028582;28;19920;-80
2023/02/09 10:12:09;;;;;;;;;;;;;;;3.54;32.42;102952.00;5052731;28;19916;-80
2023/02/09 10:15:17;;;;;;;;;;;;;;;3.40;32.25;102948.50;5035918;28;20397;-83
2023/02/09 10:18:12;;;;;;;;;;;;;;;3.35;31.80;102948.31;5054207;28;19921;-81
2023/02/09 10:21:12;;;;;;;;;;;;;;;3.47;31.73;102950.34;5036784;28;20386;-79
2023/02/09 10:24:09;;;;;;;;;;;;;;;3.47;33.04;102939.59;5039548;28;20382;-80
2023/02/09 10:27:07;;;;;;;;;;;;;;;3.49;32.59;102959.06;5033627;28;19917;-79
2023/02/09 10:30:03;;;;;;;;;;;;;;;3.61;32.55;102950.09;5029079;28;19917;-80
2023/02/09 10:32:59;;;;;;;;;;;;;;;3.48;32.50;102949.31;5039533;28;20390;-80
2023/02/09 10:35:56;;;;;;;;;;;;;;;3.75;32.58;102948.19;5042363;28;19925;-81
2023/02/09 10:39:29;;;;;;;;;;;;;;;3.86;32.76;102932.16;5062349;28;19909;-81
2023/02/09 10:43:00;;;;;;;;;;;;;;;3.81;32.33;102931.16;5051822;28;19925;-81
2023/02/09 10:46:16;;;;;;;;;;;;;;;3.99;32.58;102928.56;5046540;28;19917;-80
2023/02/09 10:49:31;;;;;;;;;;;;;;;3.88;31.49;102916.63;5037982;28;19917;-80
2023/02/09 10:52:24;;;;;;;;;;;;;;;3.80;31.22;102914.22;5049366;28;20298;-80
2023/02/09 10:55:26;;;;;;;;;;;;;;;4.13;31.75;102907.75;5052128;28;19921;-81
2023/02/09 10:59:16;;;;;;;;;;;;;;;3.97;31.34;102894.81;4966359;28;19918;-81
2023/02/09 11:02:26;;;;;;;;;;;;;;;3.77;30.91;102897.66;5042263;28;20382;-79
2023/02/09 11:05:41;;;;;;;;;;;;;;;3.96;31.51;102890.50;5039138;28;19917;-80
2023/02/09 11:13:15;;;;;;;;;;;;;;;4.49;31.03;102883.66;5041794;28;19920;-80
2023/02/09 11:16:28;;;;;;;;;;;;;;;4.67;29.94;102880.97;5046003;28;19917;-81
2023/02/09 11:19:21;;;;;;;;;;;;;;;4.70;30.13;102875.16;5030878;28;19921;-83
2023/02/09 11:22:13;;;;;;;;;;;;;;;4.72;29.70;102867.66;5034632;28;19921;-84
2023/02/09 11:25:22;;;;;;;;;;;;;;;4.76;29.62;102868.06;5035235;28;19917;-80
2023/02/09 11:28:26;;;;;;;;;;;;;;;4.69;30.60;102864.59;5026852;28;19917;-82
2023/02/09 11:31:25;;;;;;;;;;;;;;;4.76;29.71;102868.06;5037669;28;20592;-81
2023/02/09 11:34:33;;;;;;;;;;;;;;;4.82;29.70;102872.56;5050395;28;20321;-79
2023/02/09 11:37:43;;;;;;;;;;;;;;;4.84;29.74;102865.06;5045779;28;19917;-81
2023/02/09 11:40:38;;;;;;;;;;;;;;;4.80;29.85;102860.34;5028313;28;20298;-81
2023/02/09 11:43:32;;;;;;;;;;;;;;;5.01;29.16;102857.19;5037293;28;19917;-81
2023/02/09 11:46:25;;;;;;;;;;;;;;;5.17;29.52;102859.28;5034209;28;19917;-80
2023/02/09 11:49:16;;;;;;;;;;;;;;;5.23;28.69;102854.88;5038323;28;20305;-81
2023/02/09 11:52:09;;;;;;;;;;;;;;;5.32;28.86;102848.94;5036286;28;19917;-81
2023/02/09 11:55:02;;;;;;;;;;;;;;;5.50;28.46;102845.34;5035097;28;19917;-81
2023/02/09 11:57:55;;;;;;;;;;;;;;;5.33;27.95;102847.06;5041561;28;19917;-80
2023/02/09 12:00:52;;;;;;;;;;;;;;;5.33;28.25;102839.78;5040743;28;19925;-81
2023/02/09 12:03:48;;;;;;;;;;;;;;;5.30;28.99;102829.44;5040141;28;19917;-81
2023/02/09 12:06:38;;;;;;;;;;;;;;;5.48;28.58;102831.28;5042579;28;19917;-82
2023/02/09 12:09:28;;;;;;;;;;;;;;;5.54;28.25;102830.34;5043846;28;19929;-82
2023/02/09 12:12:18;;;;;;;;;;;;;;;5.55;27.84;102824.72;5044416;28;19917;-81
2023/02/09 12:15:16;;;;;;;;;;;;;;;5.68;28.90;102823.72;5039911;28;19917;-81
2023/02/09 12:18:13;;;;;;;;;;;;;;;5.88;28.29;102812.66;5032891;28;19925;-81
2023/02/09 12:21:04;;;;;;;;;;;;;;;6.01;28.10;102813.25;5051393;28;19917;-81
2023/02/09 12:23:56;;;;;;;;;;;;;;;5.75;27.93;102800.13;5037719;28;19916;-82
2023/02/09 12:26:45;;;;;;;;;;;;;;;5.79;27.84;102801.31;5045187;28;19925;-81
2023/02/09 12:29:43;;;;;;;;;;;;;;;5.69;28.85;102801.06;5040513;28;19921;-82
2023/02/09 12:32:44;;;;;;;;;;;;;;;5.82;29.16;102795.47;5039162;28;19917;-81
2023/02/09 12:35:43;;;;;;;;;;;;;;;5.47;28.72;102791.84;5033717;28;20007;-82
2023/02/09 12:38:54;;;;;;;;;;;;;;;5.61;29.19;102782.50;5041227;28;19921;-82
2023/02/09 12:41:44;;;;;;;;;;;;;;;5.60;29.19;102778.16;5042309;28;20403;-84
2023/02/09 12:44:38;;;;;;;;;;;;;;;5.70;28.08;102775.72;5039706;28;19921;-82
2023/02/09 12:47:44;;;;;;;;;;;;;;;5.95;28.11;102775.53;5049234;28;19921;-82
2023/02/09 12:50:36;;;;;;;;;;;;;;;6.44;27.75;102771.56;5045889;28;19917;-82
2023/02/09 12:53:20;;;;;;;;;;;;;;;6.38;29.47;102773.31;5045536;28;19917;-81
2023/02/09 12:56:12;;;;;;;;;;;;;;;6.44;28.06;102768.84;5046846;28;19917;-81
2023/02/09 12:59:17;;;;;;;;;;;;;;;6.62;29.74;102767.88;5043796;28;19921;-82
2023/02/09 13:02:06;;;;;;;;;;;;;;;6.72;27.53;102768.91;5043875;28;19917;-82
2023/02/09 13:05:08;;;;;;;;;;;;;;;6.79;27.51;102775.00;5043397;28;19917;-83
2023/02/09 13:08:02;;;;;;;;;;;;;;;6.58;27.17;102766.72;5022127;28;19921;-82
2023/02/09 13:11:01;;;;;;;;;;;;;;;7.55;26.59;102756.69;5035371;28;19917;-82
2023/02/09 13:14:01;;;;;;;;;;;;;;;8.14;25.65;102766.03;5039371;28;19917;-82
2023/02/09 13:16:49;;;;;;;;;;;;;;;8.04;25.76;102755.03;5044068;28;19917;-82
2023/02/09 13:19:48;;;;;;;;;;;;;;;10.09;23.46;102762.22;5040035;28;19929;-81
2023/02/09 13:23:15;;;;;;;;;;;;;;;12.13;21.23;102762.53;5040557;28;19917;-82
2023/02/09 13:26:26;;;;;;;;;;;;;;;12.02;20.98;102751.91;4949006;29;20440;-83
2023/02/09 13:29:27;;;;;;;;;;;;;;;11.33;20.54;102752.41;4959382;28;19926;-82
2023/02/09 13:32:19;;;;;;;;;;;;;;;12.82;19.85;102754.38;5032740;28;19917;-80
2023/02/09 13:35:28;;;;;;;;;;;;;;;14.00;18.97;102755.22;5035290;28;19925;-83
2023/02/09 13:38:19;;;;;;;;;;;;;;;14.36;18.63;102759.25;5038574;28;19921;-82
2023/02/09 13:41:23;;;;;;;;;;;;;;;17.32;16.20;102757.50;5038427;28;19917;-77
2023/02/09 13:44:22;;;;;;;;;;;;;;;17.78;15.92;102755.28;5037483;28;19921;-78
2023/02/09 13:47:14;;;;;;;;;;;;;;;15.87;17.29;102747.25;5035479;28;20306;-77
2023/02/09 13:50:11;;;;;;;;;;;;;;;15.34;17.19;102753.00;5035475;28;19917;-78
2023/02/09 13:53:12;;;;;;;;;;;;;;;16.09;17.51;102752.91;5036112;28;19917;-77
2023/02/09 13:56:02;;;;;;;;;;;;;;;17.06;16.27;102760.84;5031785;28;19917;-78
2023/02/09 13:58:50;;;;;;;;;;;;;;;15.11;17.36;102759.41;5047370;28;19925;-82
2023/02/09 14:01:39;;;;;;;;;;;;;;;14.41;18.21;102759.19;5048383;28;19917;-81
2023/02/09 14:04:35;;;;;;;;;;;;;;;15.88;17.88;102756.31;5049112;28;20417;-82
2023/02/09 14:07:30;;;;;;;;;;;;;;;13.44;20.00;102742.03;5039877;28;19922;-81
2023/02/09 14:10:18;;;;;;;;;;;;;;;14.53;19.47;102751.38;5048152;28;19917;-82
2023/02/09 14:13:17;;;;;;;;;;;;;;;14.36;19.68;102750.19;5045873;28;19917;-82
2023/02/09 14:16:08;;;;;;;;;;;;;;;13.19;20.25;102744.94;5052288;28;19917;-82
2023/02/09 14:18:59;;;;;;;;;;;;;;;12.73;20.02;102739.69;5048328;28;20172;-82
2023/02/09 14:21:51;;;;;;;;;;;;;;;11.53;22.22;102745.06;5047054;28;19921;-81
2023/02/09 14:24:41;;;;;;;;;;;;;;;10.78;22.07;102739.47;5042766;28;19917;-81
2023/02/09 14:27:35;;;;;;;;;;;;;;;9.96;23.01;102745.53;5038553;28;19917;-81
2023/02/09 14:30:31;;;;;;;;;;;;;;;13.27;20.77;102738.88;5038955;28;19917;-82
2023/02/09 14:33:23;;;;;;;;;;;;;;;13.66;20.40;102739.66;5023998;28;19921;-81
2023/02/09 14:36:36;;;;;;;;;;;;;;;14.71;19.36;102743.50;5040555;28;19917;-81
2023/02/09 14:39:26;;;;;;;;;;;;;;;11.57;21.54;102739.91;5040941;28;19921;-81
2023/02/09 14:42:18;;;;;;;;;;;;;;;14.04;20.19;102740.69;5037695;28;19921;-82
2023/02/09 14:45:17;;;;;;;;;;;;;;;14.35;20.49;102741.16;5026967;28;20301;-81
2023/02/09 14:48:16;;;;;;;;;;;;;;;16.16;18.64;102739.56;5054415;28;19917;-81
2023/02/09 14:51:15;;;;;;;;;;;;;;;14.09;20.25;102737.06;5039858;28;19925;-83
2023/02/09 14:54:06;;;;;;;;;;;;;;;12.95;20.83;102730.31;5034014;28;19929;-84
2023/02/09 14:56:59;;;;;;;;;;;;;;;14.83;19.26;102730.22;5024045;28;19917;-84
2023/02/09 14:59:46;;;;;;;;;;;;;;;15.56;18.49;102733.25;5025202;28;19921;-84
2023/02/09 15:02:36;;;;;;;;;;;;;;;12.47;22.88;102726.41;5027668;28;19917;-83
2023/02/09 15:05:25;;;;;;;;;;;;;;;10.92;22.77;102732.47;5043742;28;19917;-81
2023/02/09 15:08:18;;;;;;;;;;;;;;;10.53;23.51;102729.31;5041307;28;19921;-81
2023/02/09 15:12:03;;;;;;;;;;;;;;;12.24;22.45;102720.47;5019425;28;19917;-80
2023/02/09 15:14:23;;;;;;;;;;;;;;;13.74;20.52;102723.75;5030938;28;19917;-81
2023/02/09 15:17:24;;;;;;;;;;;;;;;13.05;21.00;102722.06;5039077;28;19917;-82
2023/02/09 15:20:15;;;;;;;;;;;;;;;13.21;21.10;102723.59;5039356;28;19921;-81
2023/02/09 15:23:09;;;;;;;;;;;;;;;10.79;23.26;102728.31;5022633;28;19922;-80
2023/02/09 15:26:01;;;;;;;;;;;;;;;9.23;25.81;102725.38;5036769;28;19916;-81
2023/02/09 15:28:48;;;;;;;;;;;;;;;8.69;26.46;102719.06;5025676;28;19917;-80
2023/02/09 15:31:40;;;;;;;;;;;;;;;9.02;26.68;102727.06;5035388;28;19925;-80
2023/02/09 15:34:32;;;;;;;;;;;;;;;8.77;26.81;102719.47;5036524;28;19917;-80
2023/02/09 15:37:23;;;;;;;;;;;;;;;8.77;27.35;102726.78;5034769;28;20301;-81
2023/02/09 15:40:16;;;;;;;;;;;;;;;8.60;27.61;102734.97;5029250;28;20313;-81